Time;durP1;ratioP1;P1;durP2;ratioP2;P2;SDS_P1;SDS_P2;PMS_P1;PMS_P2;Temp;Humidity;BMP_temperature;BMP_pressure;BME280_temperature;BME280_humidity;BME280_pressure;Samples;Min_cycle;Max_cycle;Signal;HPM_P1;HPM_P2
2022/12/20 00:01:09;;;;;;;91.40;51.40;;;15.50;64.20;;;17.79;33.15;99656.28;5055813;28;20051;-71
2022/12/20 00:03:36;;;;;;;81.82;48.35;;;15.60;64.10;;;17.78;33.15;99659.28;5025705;28;20048;-72
2022/12/20 00:06:04;;;;;;;82.70;48.90;;;15.50;64.10;;;17.78;33.60;99653.81;5042847;28;20191;-72
2022/12/20 00:08:30;;;;;;;83.72;48.00;;;15.60;64.20;;;17.80;33.32;99657.09;5041180;28;20048;-71
2022/12/20 00:10:58;;;;;;;80.03;47.95;;;15.70;64.00;;;17.81;33.39;99653.25;5056130;28;20036;-71
2022/12/20 00:13:24;;;;;;;83.88;50.47;;;15.70;63.70;;;17.81;33.33;99664.22;5056285;28;20980;-71
2022/12/20 00:15:50;;;;;;;85.07;49.00;;;15.70;63.80;;;17.79;32.87;99660.94;5037535;28;20056;-71
2022/12/20 00:18:16;;;;;;;75.57;47.85;;;15.70;63.70;;;17.76;33.17;99656.06;5020294;28;20313;-72
2022/12/20 00:20:42;;;;;;;90.68;50.08;;;15.70;63.70;;;17.80;33.33;99657.09;5070591;28;20044;-72
2022/12/20 00:23:08;;;;;;;90.22;51.00;;;15.60;64.00;;;17.85;33.50;99659.75;5049823;28;20043;-72
2022/12/20 00:25:34;;;;;;;85.35;48.95;;;15.60;64.30;;;17.82;33.57;99659.56;5055693;28;20048;-71
2022/12/20 00:28:02;;;;;;;79.38;47.63;;;15.80;64.30;;;17.86;33.15;99658.66;5070660;28;20043;-72
2022/12/20 00:30:28;;;;;;;88.28;50.80;;;15.80;63.70;;;17.86;33.04;99672.38;5052795;28;20052;-72
2022/12/20 00:32:54;;;;;;;91.40;50.85;;;15.80;63.50;;;17.83;33.49;99672.97;5051810;28;20041;-72
2022/12/20 00:35:20;;;;;;;85.40;50.38;;;15.80;63.60;;;17.85;33.05;99665.25;5071758;28;20044;-72
2022/12/20 00:37:46;;;;;;;82.50;50.83;;;15.80;63.60;;;17.88;33.03;99667.38;5055178;28;20042;-72
2022/12/20 00:40:12;;;;;;;79.13;48.60;;;15.70;63.90;;;17.93;33.34;99663.75;5070723;28;20036;-71
2022/12/20 00:42:38;;;;;;;83.80;49.90;;;15.80;63.90;;;17.94;33.02;99663.44;5044872;28;20098;-72
2022/12/20 00:45:05;;;;;;;82.90;49.03;;;15.80;63.90;;;17.93;33.16;99655.50;5067602;28;20045;-71
2022/12/20 00:47:32;;;;;;;80.05;49.50;;;15.70;63.80;;;17.94;33.08;99657.97;5056040;28;20483;-71
2022/12/20 00:49:58;;;;;;;79.93;48.40;;;15.70;63.80;;;17.94;33.31;99655.22;5018098;28;20063;-71
2022/12/20 00:52:24;;;;;;;83.35;50.35;;;15.80;63.80;;;17.93;33.43;99661.81;5043679;28;20041;-71
2022/12/20 00:54:50;;;;;;;80.88;50.25;;;15.70;63.90;;;18.01;33.23;99654.81;5044159;28;20044;-71
2022/12/20 00:57:16;;;;;;;85.75;50.58;;;15.70;64.10;;;18.00;33.45;99648.50;5037094;28;20059;-71
2022/12/20 00:59:42;;;;;;;84.95;50.10;;;15.80;64.20;;;18.04;33.13;99650.63;5057089;28;20051;-71
2022/12/20 01:02:09;;;;;;;76.20;47.88;;;15.80;64.10;;;18.00;33.25;99648.50;5067870;28;20052;-71
2022/12/20 01:04:35;;;;;;;82.90;50.92;;;15.80;64.00;;;18.08;32.81;99646.19;5069615;28;20055;-72
2022/12/20 01:07:01;;;;;;;83.55;50.28;;;15.80;63.80;;;18.01;33.42;99652.06;5072033;28;20056;-72
2022/12/20 01:09:28;;;;;;;78.85;48.47;;;15.90;63.80;;;18.04;32.92;99653.38;5048581;28;20033;-72
2022/12/20 01:11:54;;;;;;;73.65;48.83;;;15.90;64.00;;;18.07;33.27;99647.31;5070489;28;20040;-71
2022/12/20 01:14:20;;;;;;;76.90;48.05;;;15.90;64.10;;;18.06;33.26;99643.72;5072136;28;20044;-71
2022/12/20 01:16:46;;;;;;;82.53;48.78;;;15.80;64.10;;;18.07;33.10;99639.88;5052965;28;20043;-71
2022/12/20 01:19:14;;;;;;;83.28;50.55;;;15.80;64.10;;;18.08;33.08;99630.53;5053249;28;20071;-71
2022/12/20 01:21:43;;;;;;;75.65;46.38;;;15.90;64.00;;;18.14;33.07;99629.31;5020163;28;20082;-71
2022/12/20 01:24:14;;;;;;;84.75;48.50;;;15.90;63.80;;;18.12;33.15;99628.00;5058401;28;20376;-72
2022/12/20 01:26:40;;;;;;;86.93;49.20;;;15.90;63.80;;;18.18;33.16;99630.31;5036909;28;20056;-72
2022/12/20 01:29:06;;;;;;;79.00;48.17;;;15.90;64.30;;;18.15;33.45;99622.69;5068707;28;20086;-72
2022/12/20 01:31:32;;;;;;;79.90;47.67;;;15.90;64.40;;;18.19;33.32;99617.41;5035738;28;20132;-72
2022/12/20 01:33:59;;;;;;;83.68;49.10;;;15.90;64.20;;;18.19;33.14;99623.72;5056583;28;20048;-71
2022/12/20 01:36:30;;;;;;;77.60;46.80;;;16.00;64.10;;;18.19;33.14;99611.91;5039749;28;20453;-71
2022/12/20 01:38:59;;;;;;;85.95;47.97;;;16.00;63.90;;;18.23;32.94;99610.19;5039351;28;20040;-71
2022/12/20 01:41:26;;;;;;;73.93;45.70;;;16.00;63.70;;;18.21;33.22;99601.44;5055466;28;20044;-72
2022/12/20 01:43:56;;;;;;;82.18;47.05;;;16.00;63.90;;;18.26;33.26;99593.09;5022584;28;20072;-72
2022/12/20 01:46:30;;;;;;;79.03;47.05;;;16.00;64.00;;;18.28;33.13;99596.38;5036779;28;20037;-72
2022/12/20 01:49:13;;;;;;;77.90;45.92;;;16.00;64.00;;;18.31;33.00;99589.44;5028176;28;20399;-72
2022/12/20 01:51:48;;;;;;;75.30;46.80;;;16.10;64.00;;;18.27;32.66;99603.00;5036665;28;20460;-72
2022/12/20 01:54:23;;;;;;;73.68;45.92;;;16.10;63.70;;;18.26;33.18;99625.25;5057124;28;20044;-71
2022/12/20 01:56:54;;;;;;;74.68;45.33;;;16.10;63.60;;;18.29;32.98;99639.19;5039875;28;20047;-71
2022/12/20 01:59:20;;;;;;;81.22;44.10;;;16.10;63.70;;;18.28;33.06;99626.56;5018372;28;20044;-71
2022/12/20 02:01:46;;;;;;;76.15;45.72;;;16.10;64.00;;;18.32;33.12;99624.84;5038446;28;20048;-71
2022/12/20 02:04:13;;;;;;;75.05;43.78;;;16.10;64.20;;;18.37;32.82;99624.75;5037408;28;20033;-71
2022/12/20 02:06:39;;;;;;;78.25;43.67;;;16.10;63.90;;;18.37;32.90;99610.22;5069668;28;20055;-71
2022/12/20 02:09:05;;;;;;;70.80;43.10;;;16.20;63.70;;;18.31;33.11;99612.22;5055346;28;20499;-71
2022/12/20 02:12:01;;;;;;;71.07;43.10;;;16.20;63.60;;;18.31;32.98;99612.22;5054976;28;20094;-72
2022/12/20 02:14:48;;;;;;;74.80;45.15;;;16.30;63.50;;;18.33;32.99;99600.94;5054750;28;20045;-72
2022/12/20 02:17:35;;;;;;;71.25;42.25;;;16.20;63.60;;;18.33;33.21;99598.19;5029145;28;20060;-71
2022/12/20 02:20:37;;;;;;;69.18;42.40;;;16.20;64.10;;;18.35;33.18;99590.47;5067126;28;20093;-71
2022/12/20 02:23:21;;;;;;;70.13;42.97;;;16.30;63.80;;;18.30;33.11;99585.91;5064397;28;20115;-71
2022/12/20 02:26:24;;;;;;;68.07;42.13;;;16.30;63.60;;;18.34;32.97;99595.16;5054362;28;20083;-71
2022/12/20 02:29:15;;;;;;;69.65;41.83;;;16.30;63.40;;;18.34;32.96;99599.81;5061084;28;20048;-71
2022/12/20 02:31:49;;;;;;;68.68;42.05;;;16.40;63.40;;;18.37;33.14;99596.47;5056179;28;20419;-71
2022/12/20 02:34:15;;;;;;;72.53;42.40;;;16.30;63.70;;;18.40;33.33;99582.13;5041303;28;20449;-71
2022/12/20 02:36:41;;;;;;;66.05;41.10;;;16.30;63.90;;;18.40;33.00;99585.69;5027217;28;20064;-71
2022/12/20 02:39:11;;;;;;;65.25;41.30;;;16.30;63.60;;;18.38;32.99;99585.16;5071057;28;20041;-71
2022/12/20 02:41:41;;;;;;;67.18;39.90;;;16.40;63.40;;;18.39;33.04;99564.00;5036427;28;20109;-72
2022/12/20 02:46:59;;;;;;;65.85;39.47;;;16.40;63.20;;;18.39;33.16;99575.00;5049179;28;20085;-71
2022/12/20 02:49:28;;;;;;;58.53;38.30;;;16.30;63.60;;;18.42;32.92;99575.22;5040810;28;20053;-71
2022/12/20 02:51:54;;;;;;;65.00;39.10;;;16.40;63.60;;;18.38;33.06;99576.94;5043589;28;20049;-71
2022/12/20 02:54:20;;;;;;;66.40;38.53;;;16.40;63.60;;;18.41;32.92;99584.56;5042571;28;20553;-71
2022/12/20 02:56:53;;;;;;;55.97;37.72;;;16.40;63.50;;;18.41;32.95;99584.56;5056857;28;20029;-71
2022/12/20 02:59:57;;;;;;;59.15;38.25;;;16.40;63.40;;;18.41;33.06;99584.56;5041911;28;20051;-71
2022/12/20 03:02:24;;;;;;;63.55;36.67;;;16.40;63.30;;;18.40;33.12;99587.63;5026388;28;20049;-71
2022/12/20 03:04:49;;;;;;;54.83;36.20;;;16.40;63.40;;;18.40;33.06;99569.19;5058826;28;20051;-71
2022/12/20 03:07:17;;;;;;;58.10;36.08;;;16.40;63.70;;;18.45;33.23;99562.78;5059718;28;20044;-71
2022/12/20 03:09:44;;;;;;;61.67;37.20;;;16.30;63.80;;;18.39;33.02;99562.09;5036928;28;20123;-71
2022/12/20 03:12:11;;;;;;;53.63;35.78;;;16.40;63.50;;;18.38;32.94;99560.44;5029721;28;20051;-71
2022/12/20 03:14:40;;;;;;;60.08;37.22;;;16.50;63.20;;;18.38;32.96;99554.16;5021319;28;20072;-71
2022/12/20 03:17:06;;;;;;;59.28;35.88;;;16.60;63.00;;;18.40;32.91;99555.47;5041644;28;20036;-71
2022/12/20 03:19:32;;;;;;;56.83;35.38;;;16.50;62.90;;;18.42;33.15;99564.22;5059331;28;20098;-71
2022/12/20 03:21:58;;;;;;;54.03;34.65;;;16.50;63.00;;;18.40;33.03;99555.47;5055280;28;20450;-71
2022/12/20 03:24:24;;;;;;;57.97;35.22;;;16.50;63.40;;;18.40;33.19;99563.72;5055601;28;20305;-71
2022/12/20 03:26:51;;;;;;;54.38;33.65;;;16.50;63.30;;;18.42;33.11;99571.66;5057416;28;20051;-71
2022/12/20 03:29:17;;;;;;;58.00;33.50;;;16.60;63.00;;;18.45;32.99;99582.03;5050573;28;20041;-71
2022/12/20 03:31:43;;;;;;;50.55;33.25;;;16.60;63.00;;;18.44;32.80;99569.38;5056577;28;20473;-71
2022/12/20 03:34:09;;;;;;;56.45;35.38;;;16.50;62.90;;;18.41;32.95;99570.81;5068470;28;20054;-71
2022/12/20 03:36:35;;;;;;;55.75;32.25;;;16.60;63.00;;;18.43;33.12;99565.84;5045901;28;20048;-71
2022/12/20 03:39:01;;;;;;;56.50;35.00;;;16.60;63.00;;;18.41;33.20;99553.53;5040793;28;20362;-71
2022/12/20 03:41:27;;;;;;;46.88;31.85;;;16.60;63.00;;;18.41;33.05;99551.59;5040106;28;20044;-71
2022/12/20 03:43:53;;;;;;;52.20;32.30;;;16.60;63.00;;;18.39;32.99;99547.53;5039043;28;20091;-71
2022/12/20 03:46:19;;;;;;;49.40;31.52;;;16.60;63.00;;;18.37;33.10;99539.63;5056324;28;20039;-71
2022/12/20 03:48:45;;;;;;;53.80;34.13;;;16.60;63.00;;;18.38;32.93;99540.41;5053997;28;20428;-71
2022/12/20 03:51:12;;;;;;;50.72;30.90;;;16.60;63.00;;;18.38;33.23;99545.91;5072078;28;20040;-71
2022/12/20 03:53:38;;;;;;;46.70;28.67;;;16.60;63.00;;;18.39;32.87;99545.63;5058172;28;20058;-71
2022/12/20 03:56:04;;;;;;;50.33;30.00;;;16.60;62.50;;;18.38;32.75;99560.44;5055573;28;20043;-71
2022/12/20 03:58:30;;;;;;;43.47;29.10;;;16.60;62.20;;;18.33;32.68;99546.81;5041458;28;20096;-71
2022/12/20 04:00:56;;;;;;;47.30;29.90;;;16.60;62.10;;;18.30;32.72;99544.69;5055851;28;20044;-71
2022/12/20 04:03:22;;;;;;;48.15;31.17;;;16.70;62.00;;;18.36;32.67;99546.22;5054581;28;20536;-71
2022/12/20 04:05:49;;;;;;;45.25;29.27;;;16.60;62.30;;;18.36;32.93;99551.69;5070715;28;20102;-72
2022/12/20 04:08:14;;;;;;;45.55;28.00;;;16.60;62.70;;;18.37;32.77;99544.28;5041535;28;20345;-71
2022/12/20 04:13:25;;;;;;;42.83;28.45;;;16.60;62.20;;;18.31;32.51;99540.00;5059795;28;20063;-71
2022/12/20 04:15:51;;;;;;;43.40;27.65;;;16.60;61.90;;;18.25;32.46;99531.06;5069725;28;20480;-71
2022/12/20 04:18:18;;;;;;;47.95;29.05;;;16.60;61.50;;;18.26;32.63;99529.94;5039928;28;20495;-71
2022/12/20 04:20:44;;;;;;;45.45;28.00;;;16.60;61.90;;;18.29;32.80;99547.75;5071453;28;20480;-71
2022/12/20 04:23:10;;;;;;;41.58;26.65;;;16.50;62.30;;;18.35;32.64;99536.34;5039053;28;20043;-71
2022/12/20 04:25:37;;;;;;;40.58;26.08;;;16.60;62.30;;;18.31;32.70;99540.81;5061741;28;20090;-71
2022/12/20 04:28:02;;;;;;;45.92;26.45;;;16.60;61.80;;;18.23;33.01;99538.81;5064904;28;20052;-71
2022/12/20 04:30:29;;;;;;;38.92;23.58;;;16.60;61.70;;;18.10;32.26;99537.69;5065457;28;20052;-71
2022/12/20 04:32:54;;;;;;;35.40;22.20;;;16.70;60.70;;;18.09;31.62;99533.34;5066458;28;20040;-71
2022/12/20 04:35:21;;;;;;;35.22;22.20;;;16.60;59.90;;;18.12;32.17;99538.19;5052669;28;20055;-71
2022/12/20 04:37:47;;;;;;;36.78;23.75;;;16.50;60.80;;;18.22;32.04;99542.69;5035588;28;20527;-71
2022/12/20 04:40:13;;;;;;;36.85;23.55;;;16.40;61.50;;;18.20;32.11;99534.72;5019317;28;20045;-71
2022/12/20 04:42:39;;;;;;;32.30;21.27;;;16.50;61.40;;;18.19;32.08;99537.78;5054230;28;20547;-71
2022/12/20 04:45:06;;;;;;;34.00;21.63;;;16.50;60.90;;;18.20;31.96;99547.66;5054883;28;20442;-71
2022/12/20 04:47:31;;;;;;;36.47;22.83;;;16.50;60.60;;;18.11;31.94;99541.25;5051672;28;20049;-71
2022/12/20 04:49:58;;;;;;;37.83;23.02;;;16.50;60.50;;;18.17;31.98;99551.03;5066707;28;20044;-71
2022/12/20 04:55:09;;;;;;;33.10;22.48;;;16.40;61.30;;;18.20;32.51;99539.41;5053077;28;20036;-71
2022/12/20 04:57:35;;;;;;;36.38;21.67;;;16.50;61.80;;;18.17;32.22;99537.28;5067625;28;20115;-71
2022/12/20 05:00:01;;;;;;;35.55;20.63;;;16.50;61.30;;;18.14;32.15;99544.22;5032954;28;20495;-71
2022/12/20 05:02:27;;;;;;;32.33;20.38;;;16.50;61.10;;;18.12;32.18;99537.41;5050025;28;20040;-71
2022/12/20 05:04:53;;;;;;;34.22;21.13;;;16.40;60.90;;;18.12;32.04;99540.13;5064465;28;20075;-71
2022/12/20 05:07:19;;;;;;;30.77;20.58;;;16.40;61.00;;;18.18;32.38;99541.66;5054295;28;20040;-71
2022/12/20 05:09:45;;;;;;;32.22;19.75;;;16.40;61.10;;;18.17;32.71;99540.03;5056215;28;20036;-71
2022/12/20 05:12:11;;;;;;;30.27;18.88;;;16.40;61.70;;;18.18;32.58;99541.66;5069096;28;20045;-71
2022/12/20 05:14:37;;;;;;;31.67;20.58;;;16.40;61.70;;;18.12;32.21;99534.66;5054176;28;20040;-71
2022/12/20 05:17:03;;;;;;;31.98;19.52;;;16.40;61.20;;;18.11;32.17;99538.50;5064606;28;20509;-71
2022/12/20 05:19:29;;;;;;;29.73;19.10;;;16.50;61.20;;;18.11;32.25;99538.50;5049505;28;20051;-71
2022/12/20 05:27:24;;;;;;;28.13;17.92;;;16.40;61.40;;;18.16;32.61;99541.94;5043860;28;20061;-71
2022/12/20 05:29:51;;;;;;;26.42;17.70;;;16.40;61.80;;;18.10;32.24;99539.63;5054481;28;20048;-71
2022/12/20 05:32:17;;;;;;;26.90;17.98;;;16.40;61.30;;;18.07;32.27;99530.06;5051527;28;20105;-71
2022/12/20 05:34:43;;;;;;;26.33;18.20;;;16.40;61.20;;;18.06;32.26;99527.63;5053321;28;20828;-71
2022/12/20 05:37:09;;;;;;;27.10;17.95;;;16.40;61.00;;;18.10;31.85;99529.44;5068741;28;20041;-71
2022/12/20 05:39:35;;;;;;;27.67;18.73;;;16.30;60.90;;;18.09;32.36;99532.50;5065802;28;20047;-71
2022/12/20 05:42:01;;;;;;;27.70;17.17;;;16.30;61.30;;;18.04;32.67;99536.19;5030695;28;20487;-71
2022/12/20 05:44:27;;;;;;;28.52;18.15;;;16.30;61.80;;;18.07;32.80;99530.06;5033887;28;20396;-71
2022/12/20 05:46:53;;;;;;;29.25;17.02;;;16.20;62.00;;;18.07;32.35;99534.75;5055818;28;20041;-71
2022/12/20 05:49:19;;;;;;;26.80;17.58;;;16.20;61.60;;;18.05;32.16;99542.47;5060376;28;20131;-71
2022/12/20 05:51:45;;;;;;;25.70;17.02;;;16.30;61.20;;;18.03;32.36;99534.53;5066533;28;20062;-71
2022/12/20 05:54:11;;;;;;;28.15;17.70;;;16.30;61.10;;;17.98;32.16;99526.41;5053631;28;20033;-71
2022/12/20 05:56:37;;;;;;;27.10;17.80;;;16.30;61.10;;;17.99;32.33;99522.56;5050749;28;20102;-71
2022/12/20 05:59:03;;;;;;;29.45;17.58;;;16.30;61.20;;;18.01;32.42;99523.03;5052909;28;20040;-71
2022/12/20 06:01:29;;;;;;;23.98;17.00;;;16.30;61.30;;;18.02;32.49;99529.38;5038643;28;20444;-71
2022/12/20 06:03:58;;;;;;;28.83;18.20;;;16.20;61.40;;;18.02;32.47;99527.44;5039698;28;20090;-72
2022/12/20 06:06:24;;;;;;;22.83;16.02;;;16.20;61.80;;;18.03;32.74;99528.22;5042944;28;20052;-72
2022/12/20 06:08:50;;;;;;;26.52;17.48;;;16.20;62.30;;;17.98;32.56;99526.41;5039186;28;20046;-71
2022/12/20 06:11:16;;;;;;;28.65;17.08;;;16.30;61.90;;;17.99;32.63;99517.88;5037123;28;20033;-70
2022/12/20 06:13:43;;;;;;;24.85;15.63;;;16.30;61.60;;;17.97;32.46;99511.06;5045567;28;20144;-70
2022/12/20 06:16:09;;;;;;;25.45;17.65;;;16.30;61.40;;;17.99;32.36;99520.63;5069182;28;20040;-70
2022/12/20 06:18:35;;;;;;;25.77;15.88;;;16.30;61.40;;;17.99;32.77;99512.38;5048731;28;20052;-70
2022/12/20 06:21:01;;;;;;;26.40;17.02;;;16.20;62.00;;;18.02;32.77;99521.13;5067644;28;20381;-70
2022/12/20 06:23:27;;;;;;;23.38;15.65;;;16.20;62.60;;;17.98;32.85;99513.47;5070484;28;20040;-70
2022/12/20 06:25:53;;;;;;;22.60;15.48;;;16.10;62.50;;;17.98;32.93;99510.75;5068279;28;20055;-70
2022/12/20 06:28:20;;;;;;;24.05;15.68;;;16.20;62.20;;;17.95;32.72;99516.03;5071002;28;20044;-70
2022/12/20 06:30:53;;;;;;;26.20;16.45;;;16.20;62.10;;;17.90;32.53;99507.91;5068969;28;20037;-70
2022/12/20 06:33:20;;;;;;;21.48;15.38;;;16.10;61.90;;;17.95;32.58;99500.38;5068843;28;20476;-70
2022/12/20 06:35:46;;;;;;;24.98;16.50;;;16.10;62.10;;;17.96;33.13;99498.44;5053181;28;20062;-70
2022/12/20 06:38:12;;;;;;;23.77;16.17;;;16.10;62.50;;;17.92;33.28;99497.44;5056448;28;20454;-70
2022/12/20 06:40:38;;;;;;;24.27;16.15;;;16.10;62.50;;;17.84;32.99;99493.47;5059613;28;20048;-70
2022/12/20 06:43:04;;;;;;;24.67;15.27;;;16.20;62.60;;;17.88;32.81;99499.16;5056481;28;20516;-70
2022/12/20 06:45:30;;;;;;;26.42;15.23;;;16.10;62.50;;;17.91;32.89;99506.78;5069671;28;20053;-70
2022/12/20 06:47:57;;;;;;;26.15;15.23;;;16.20;62.50;;;17.86;33.21;99509.63;5071722;28;20090;-70
2022/12/20 06:50:23;;;;;;;22.65;14.93;;;16.20;62.00;;;17.91;32.83;99513.09;5040801;28;20446;-70
2022/12/20 06:52:49;;;;;;;25.55;16.00;;;16.10;62.50;;;17.88;33.16;99510.13;5070751;28;20052;-70
2022/12/20 06:55:16;;;;;;;22.27;14.98;;;16.10;62.60;;;17.86;33.26;99515.94;5072820;28;20803;-70
2022/12/20 06:57:42;;;;;;;19.83;14.20;;;16.10;62.90;;;17.87;33.25;99508.53;5052103;28;20051;-70
2022/12/20 07:00:09;;;;;;;26.10;14.80;;;16.10;62.50;;;17.87;33.02;99517.56;5039801;28;20516;-70
2022/12/20 07:02:35;;;;;;;21.92;14.80;;;16.10;62.50;;;17.89;33.00;99509.03;5036888;28;20528;-70
2022/12/20 07:05:01;;;;;;;24.90;15.48;;;16.10;62.50;;;17.89;32.97;99512.59;5062971;28;20043;-70
2022/12/20 07:07:27;;;;;;;22.08;14.55;;;16.00;62.30;;;17.89;33.14;99512.59;5070316;28;20086;-70
2022/12/20 07:09:53;;;;;;;24.60;14.43;;;16.00;62.70;;;17.85;33.05;99519.78;5069280;28;20056;-70
2022/12/20 07:12:19;;;;;;;23.67;15.15;;;16.00;63.20;;;17.87;33.22;99514.00;5056818;28;20609;-70
2022/12/20 07:14:45;;;;;;;25.92;14.25;;;15.90;63.30;;;17.83;33.29;99513.78;5054933;28;20049;-70
2022/12/20 07:17:13;;;;;;;22.55;14.38;;;16.00;63.00;;;17.88;33.07;99521.09;5070975;28;20040;-70
2022/12/20 07:19:39;;;;;;;26.55;15.52;;;16.00;62.70;;;17.89;33.05;99529.06;5052073;28;20039;-70
2022/12/20 07:22:05;;;;;;;21.55;15.27;;;16.00;62.30;;;17.88;32.81;99516.44;5066934;28;20044;-70
2022/12/20 07:24:32;;;;;;;21.02;13.48;;;15.90;62.20;;;17.89;33.33;99520.81;5068757;28;20876;-70
2022/12/20 07:26:58;;;;;;;20.75;13.88;;;15.90;63.20;;;17.89;33.24;99526.31;5056379;28;20098;-70
2022/12/20 07:29:24;;;;;;;19.40;13.32;;;15.90;63.40;;;17.90;32.96;99524.38;5067935;28;20045;-70
2022/12/20 07:31:52;;;;;;;17.75;12.90;;;16.00;63.20;;;17.88;33.43;99521.91;5035070;28;20057;-70
2022/12/20 07:34:18;;;;;;;20.30;14.30;;;16.00;63.10;;;17.92;33.14;99528.44;5054570;28;20037;-70
2022/12/20 07:36:44;;;;;;;19.27;12.55;;;16.00;62.30;;;17.91;32.72;99528.72;5041705;28;20049;-70
2022/12/20 07:39:10;;;;;;;19.98;13.45;;;16.00;62.40;;;17.92;32.96;99533.13;5044282;28;21336;-70
2022/12/20 07:41:37;;;;;;;21.58;13.85;;;15.90;62.90;;;17.91;33.15;99525.97;5066282;28;20102;-70
2022/12/20 07:44:03;;;;;;;20.08;12.98;;;15.90;63.40;;;17.94;33.31;99530.88;5068601;28;20049;-70
2022/12/20 07:46:29;;;;;;;20.63;13.57;;;15.90;63.40;;;17.96;33.12;99534.97;5055678;28;20322;-70
2022/12/20 07:48:56;;;;;;;20.70;14.32;;;16.00;63.00;;;17.97;32.80;99525.59;5053955;28;20051;-70
2022/12/20 07:51:40;;;;;;;18.08;13.00;;;16.00;62.60;;;18.00;32.76;99538.69;5055849;28;20047;-70
2022/12/20 07:54:11;;;;;;;18.58;12.00;;;16.00;62.50;;;17.99;32.66;99531.59;5031104;28;20036;-70
2022/12/20 07:56:41;;;;;;;17.30;12.20;;;16.00;62.30;;;18.00;32.99;99524.16;5039330;28;20049;-70
2022/12/20 07:59:08;;;;;;;20.13;12.75;;;16.00;63.10;;;18.03;33.03;99520.00;5025112;28;20047;-70
2022/12/20 08:01:34;;;;;;;17.60;11.88;;;16.00;63.30;;;18.02;33.10;99524.69;5032996;28;20512;-70
2022/12/20 08:04:07;;;;;;;19.92;13.02;;;16.00;63.20;;;18.05;32.87;99524.06;5050773;28;20041;-70
2022/12/20 08:06:34;;;;;;;20.70;13.48;;;16.10;62.80;;;18.12;32.87;99515.44;5039729;28;20056;-70
2022/12/20 08:09:01;;;;;;;19.15;13.75;;;16.10;62.50;;;18.12;32.99;99508.00;5020707;28;20056;-70
2022/12/20 08:11:27;;;;;;;17.67;12.52;;;16.10;62.50;;;18.14;32.92;99505.78;5011339;28;20390;-69
2022/12/20 08:13:53;;;;;;;18.83;12.27;;;16.00;62.90;;;18.20;32.81;99495.47;5054494;28;20040;-69
2022/12/20 08:16:20;;;;;;;20.25;12.68;;;16.00;63.50;;;18.19;32.97;99502.06;5052785;28;20601;-69
2022/12/20 08:18:46;;;;;;;21.33;13.80;;;16.00;63.60;;;18.16;32.66;99498.00;5069000;28;20049;-69
2022/12/20 08:21:13;;;;;;;17.90;12.25;;;16.10;63.10;;;18.19;32.88;99493.84;5063619;28;20044;-69
2022/12/20 08:23:39;;;;;;;18.58;13.07;;;16.20;62.70;;;18.22;32.70;99494.06;5065688;28;20502;-69
2022/12/20 08:26:06;;;;;;;19.60;12.45;;;16.20;62.60;;;18.23;32.69;99498.41;5067608;28;20548;-69
2022/12/20 08:28:31;;;;;;;17.98;12.05;;;16.20;62.60;;;18.26;32.88;99497.00;5069074;28;20056;-69
2022/12/20 08:31:06;;;;;;;17.73;12.48;;;16.20;63.00;;;18.33;32.49;99491.09;5067455;28;20040;-69
2022/12/20 08:33:33;;;;;;;18.45;12.73;;;16.20;63.30;;;18.34;32.98;99479.81;5051325;28;20404;-69
2022/12/20 08:36:03;;;;;;;19.52;12.50;;;16.20;63.20;;;18.38;32.50;99478.06;5054581;28;20538;-69
2022/12/20 08:38:30;;;;;;;18.75;13.05;;;16.20;62.80;;;18.39;32.65;99489.84;5033563;28;20099;-69
2022/12/20 08:41:09;;;;;;;17.23;12.80;;;16.20;62.70;;;18.38;32.46;99497.28;5035974;28;20886;-69
2022/12/20 08:43:35;;;;;;;17.60;11.80;;;16.30;62.70;;;18.40;32.41;99503.28;5058210;28;20083;-69
2022/12/20 08:46:01;;;;;;;16.15;11.10;;;16.30;62.70;;;18.44;32.85;99500.72;5066375;28;20101;-69
2022/12/20 08:48:28;;;;;;;16.50;11.48;;;16.30;63.00;;;18.46;32.62;99494.94;5051772;28;20080;-69
2022/12/20 08:51:01;;;;;;;15.35;10.85;;;16.30;63.30;;;18.48;32.65;99493.50;5050776;28;20033;-69
2022/12/20 08:53:28;;;;;;;14.38;11.13;;;16.40;62.80;;;18.51;32.57;99495.63;5033718;28;20040;-69
2022/12/20 08:56:20;;;;;;;16.05;11.35;;;16.40;62.80;;;18.53;32.42;99487.09;5070337;28;20114;-70
2022/12/20 08:58:46;;;;;;;18.17;12.30;;;16.50;62.80;;;18.56;32.49;99497.44;5049700;28;20047;-70
2022/12/20 09:01:14;;;;;;;16.35;12.15;;;16.40;62.80;;;18.53;32.63;99498.06;5017290;28;20044;-70
2022/12/20 09:03:41;;;;;;;17.08;11.50;;;16.40;62.80;;;18.50;32.54;99499.50;5043612;28;20053;-70
2022/12/20 09:06:34;;;;;;;16.48;11.35;;;16.50;62.90;;;18.57;32.54;99494.41;5042605;28;20527;-70
2022/12/20 09:09:00;;;;;;;15.93;11.27;;;16.50;62.90;;;18.57;32.38;99490.81;5049535;28;20118;-70
2022/12/20 09:11:26;;;;;;;17.25;12.23;;;16.50;62.90;;;18.58;32.20;99495.22;5032120;28;20044;-70
2022/12/20 09:13:56;;;;;;;19.25;11.30;;;16.60;62.40;;;18.62;32.34;99496.19;5051959;28;20369;-70
2022/12/20 09:16:29;;;;;;;16.45;11.02;;;16.50;62.40;;;18.63;32.36;99489.59;5048432;28;20163;-70
2022/12/20 09:18:57;;;;;;;16.33;11.63;;;16.60;62.50;;;18.68;32.44;99481.22;5052148;28;20048;-70
2022/12/20 09:21:24;;;;;;;14.55;10.68;;;16.60;63.00;;;18.71;32.56;99477.06;5035913;28;20051;-70
2022/12/20 09:23:51;;;;;;;15.45;9.90;;;16.60;63.00;;;18.74;32.66;99484.66;5019879;28;20040;-70
2022/12/20 09:26:17;;;;;;;17.40;11.73;;;16.70;62.60;;;18.75;32.39;99478.03;5037068;28;20047;-70
2022/12/20 09:28:43;;;;;;;14.75;11.07;;;16.80;62.40;;;18.77;32.31;99467.56;5049875;28;20428;-70
2022/12/20 09:31:13;;;;;;;18.27;10.30;;;16.70;62.30;;;18.76;32.25;99475.00;5051564;28;20411;-70
2022/12/20 09:33:39;;;;;;;15.00;10.45;;;16.80;62.30;;;18.78;32.32;99466.47;5067800;28;20122;-70
2022/12/20 09:36:06;;;;;;;15.23;10.85;;;16.80;62.40;;;18.81;32.56;99472.16;5018543;28;20044;-70
2022/12/20 09:38:32;;;;;;;16.98;11.50;;;16.70;62.60;;;18.82;32.48;99465.50;5067139;28;20070;-70
2022/12/20 09:41:02;;;;;;;15.55;10.27;;;16.90;62.60;;;18.83;32.35;99458.09;5062614;28;20040;-70
2022/12/20 09:43:28;;;;;;;16.27;10.57;;;16.90;62.30;;;18.83;32.47;99452.59;5050326;28;20119;-71
2022/12/20 09:45:57;;;;;;;13.45;10.13;;;17.00;62.10;;;18.89;32.14;99450.53;5051873;28;20045;-71
2022/12/20 09:48:28;;;;;;;18.70;11.20;;;17.00;61.80;;;18.88;32.36;99449.72;5031689;28;20422;-70
2022/12/20 09:51:09;;;;;;;16.05;10.50;;;17.00;61.90;;;18.90;32.28;99458.44;5033721;28;20064;-70
2022/12/20 09:54:03;;;;;;;14.80;10.90;;;16.90;62.30;;;18.91;32.42;99459.28;5063891;28;20428;-71
2022/12/20 09:56:36;;;;;;;14.43;10.13;;;16.90;62.50;;;18.90;32.42;99458.44;5043482;28;20055;-71
2022/12/20 09:59:01;;;;;;;16.00;10.55;;;17.00;62.20;;;18.93;32.36;99457.00;5028728;28;20484;-71
2022/12/20 10:01:33;;;;;;;17.98;11.25;;;17.00;62.00;;;18.91;32.13;99451.03;5072991;28;20045;-71
2022/12/20 10:04:02;;;;;;;14.00;10.45;;;17.10;61.80;;;18.88;32.18;99452.47;5039811;28;20090;-72
2022/12/20 10:07:18;;;;;;;16.42;10.73;;;17.10;61.30;;;18.93;31.87;99451.50;5021060;28;20052;-74
2022/12/20 10:10:28;;;;;;;16.10;10.40;;;17.10;61.70;;;18.99;32.29;99442.03;5069102;28;20083;-70
2022/12/20 10:13:21;;;;;;;17.58;11.13;;;17.10;62.10;;;18.98;31.98;99448.63;5069079;28;20041;-72
2022/12/20 10:15:53;;;;;;;15.57;10.73;;;17.10;61.70;;;18.99;31.97;99444.78;5071969;28;20086;-72
2022/12/20 10:18:45;;;;;;;18.45;11.07;;;17.20;61.60;;;18.97;32.06;99417.59;5055656;28;20041;-73
2022/12/20 10:21:17;;;;;;;17.02;12.05;;;17.20;61.40;;;18.97;32.48;99414.84;5048684;28;20041;-73
2022/12/20 10:24:00;;;;;;;19.70;12.63;;;17.30;61.60;;;19.02;32.29;99406.47;5069154;28;20058;-73
2022/12/20 10:26:26;;;;;;;13.88;10.00;;;17.20;62.00;;;19.05;32.44;99399.53;5052944;28;20037;-72